createdAt,value
2022-09-02T00:01:24.422Z,93.40
2022-09-02T00:03:53.757Z,93.70
2022-09-02T00:06:21.518Z,94.30
2022-09-02T00:08:49.268Z,95.10
2022-09-02T00:11:23.725Z,95.00
2022-09-02T00:13:52.445Z,94.90
2022-09-02T00:16:20.581Z,94.50
2022-09-02T00:18:49.017Z,94.30
2022-09-02T00:21:17.415Z,94.20
2022-09-02T00:23:46.185Z,93.90
2022-09-02T00:26:14.803Z,94.10
2022-09-02T00:28:48.965Z,94.10
2022-09-02T00:31:18.692Z,93.90
2022-09-02T00:33:46.813Z,93.80
2022-09-02T00:36:14.702Z,93.60
2022-09-02T00:38:42.479Z,93.40
2022-09-02T00:41:13.163Z,93.40
2022-09-02T00:43:49.865Z,93.30
2022-09-02T00:46:21.467Z,93.40
2022-09-02T00:48:56.869Z,93.60
2022-09-02T00:51:25.481Z,93.60
2022-09-02T00:53:54.195Z,93.60
2022-09-02T00:56:24.772Z,93.60
2022-09-02T00:58:55.709Z,93.60
2022-09-02T01:01:24.194Z,93.70
2022-09-02T01:03:52.763Z,94.20
2022-09-02T01:06:25.060Z,94.20
2022-09-02T01:08:59.424Z,94.50
2022-09-02T01:11:32.459Z,95.50
2022-09-02T01:14:01.781Z,96.00
2022-09-02T01:16:35.482Z,96.20
2022-09-02T01:19:07.533Z,95.90
2022-09-02T01:21:35.993Z,95.60
2022-09-02T01:24:06.842Z,95.50
2022-09-02T01:26:34.684Z,95.50
2022-09-02T01:29:02.430Z,95.70
2022-09-02T01:31:30.234Z,95.80
2022-09-02T01:33:58.024Z,96.70
2022-09-02T01:36:26.079Z,97.40
2022-09-02T01:38:53.838Z,97.40
2022-09-02T01:41:22.921Z,97.10
2022-09-02T01:43:50.692Z,97.00
2022-09-02T01:46:18.999Z,96.70
2022-09-02T01:48:46.804Z,97.10
2022-09-02T01:51:18.556Z,97.40
2022-09-02T01:53:46.985Z,97.30
2022-09-02T01:56:14.877Z,97.40
2022-09-02T01:58:44.222Z,97.30
2022-09-02T02:01:12.385Z,97.20
2022-09-02T02:03:40.275Z,97.20
2022-09-02T02:06:11.034Z,97.70
2022-09-02T02:08:39.828Z,97.60
2022-09-02T02:11:08.787Z,97.60
2022-09-02T02:13:37.492Z,98.40
2022-09-02T02:16:06.809Z,98.50
2022-09-02T02:18:34.687Z,98.60
2022-09-02T02:21:02.514Z,98.70
2022-09-02T02:23:30.255Z,98.40
2022-09-02T02:25:58.119Z,98.60
2022-09-02T02:28:25.934Z,98.70
2022-09-02T02:30:54.048Z,98.60
2022-09-02T02:33:23.451Z,98.90
2022-09-02T02:35:58.335Z,99.30
2022-09-02T02:38:26.215Z,99.40
2022-09-02T02:40:56.296Z,99.20
2022-09-02T02:43:24.166Z,99.00
2022-09-02T02:45:52.082Z,98.60
2022-09-02T02:48:19.823Z,98.30
2022-09-02T02:50:49.004Z,98.30
2022-09-02T02:53:17.457Z,97.90
2022-09-02T02:55:49.830Z,97.90
2022-09-02T02:58:19.396Z,97.70
2022-09-02T03:00:47.363Z,97.30
2022-09-02T03:03:19.381Z,97.30
2022-09-02T03:05:49.596Z,97.10
2022-09-02T03:08:20.933Z,97.10
2022-09-02T03:10:51.458Z,96.80
2022-09-02T03:13:19.731Z,96.80
2022-09-02T03:15:47.502Z,96.80
2022-09-02T03:18:15.782Z,96.70
2022-09-02T03:20:43.954Z,96.90
2022-09-02T03:23:13.410Z,96.90
2022-09-02T03:25:44.309Z,96.80
2022-09-02T03:28:12.940Z,96.80
2022-09-02T03:30:41.543Z,96.90
2022-09-02T03:33:09.774Z,96.70
2022-09-02T03:35:40.694Z,96.60
2022-09-02T03:38:09.341Z,96.60
2022-09-02T03:40:39.351Z,96.80
2022-09-02T03:43:07.268Z,97.00
2022-09-02T03:45:35.139Z,97.40
2022-09-02T03:48:03.558Z,97.30
2022-09-02T03:50:33.076Z,97.10
2022-09-02T03:53:01.556Z,97.40
2022-09-02T03:55:30.119Z,97.20
2022-09-02T03:57:59.876Z,97.30
2022-09-02T04:00:30.393Z,97.10
2022-09-02T04:02:58.916Z,97.30
2022-09-02T04:05:26.706Z,97.40
2022-09-02T04:07:55.160Z,97.20
2022-09-02T04:10:23.621Z,97.50
2022-09-02T04:12:52.523Z,98.10
2022-09-02T04:15:22.653Z,98.20
2022-09-02T04:17:50.403Z,98.60
2022-09-02T04:20:18.125Z,98.70
2022-09-02T04:22:46.020Z,98.50
2022-09-02T04:25:13.769Z,98.50
2022-09-02T04:27:41.930Z,98.50
2022-09-02T04:30:10.737Z,98.40
2022-09-02T04:32:40.917Z,98.20
2022-09-02T04:35:09.607Z,98.70
2022-09-02T04:37:37.384Z,99.10
2022-09-02T04:40:05.878Z,99.20
2022-09-02T04:42:34.383Z,99.40
2022-09-02T04:45:02.386Z,98.90
2022-09-02T04:47:30.755Z,98.90
2022-09-02T04:49:59.839Z,98.90
2022-09-02T04:52:27.647Z,99.10
2022-09-02T04:54:55.489Z,99.10
2022-09-02T04:57:23.242Z,99.10
2022-09-02T04:59:50.979Z,98.60
2022-09-02T05:02:20.220Z,98.40
2022-09-02T05:04:48.106Z,98.90
2022-09-02T05:07:17.209Z,99.30
2022-09-02T05:09:45.353Z,99.30
2022-09-02T05:12:14.559Z,98.70
2022-09-02T05:14:43.623Z,98.50
2022-09-02T05:17:11.370Z,98.70
2022-09-02T05:19:39.098Z,98.70
2022-09-02T05:22:06.871Z,99.10
2022-09-02T05:24:35.972Z,99.20
2022-09-02T05:27:05.164Z,99.10
2022-09-02T05:29:32.906Z,99.70
2022-09-02T05:32:00.676Z,99.90
2022-09-02T05:34:28.842Z,99.90
2022-09-02T05:36:56.951Z,99.90
2022-09-02T05:39:24.739Z,99.80
2022-09-02T05:41:53.821Z,99.90
2022-09-02T05:44:21.560Z,99.90
2022-09-02T05:46:49.511Z,99.90
2022-09-02T05:49:18.222Z,99.90
2022-09-02T05:51:48.077Z,99.90
2022-09-02T05:54:18.851Z,99.90
2022-09-02T05:56:49.068Z,99.90
2022-09-02T05:59:18.925Z,99.90
2022-09-02T06:01:46.853Z,99.90
2022-09-02T06:04:14.786Z,99.90
2022-09-02T06:06:43.275Z,99.90
2022-09-02T06:09:14.686Z,99.90
2022-09-02T06:11:44.616Z,99.90
2022-09-02T06:14:13.916Z,99.90
2022-09-02T06:16:43.650Z,99.90
2022-09-02T06:19:12.855Z,99.90
2022-09-02T06:21:42.851Z,99.90
2022-09-02T06:24:12.759Z,99.90
2022-09-02T06:26:41.805Z,99.90
2022-09-02T06:29:11.227Z,99.90
2022-09-02T06:31:43.902Z,99.90
2022-09-02T06:34:14.104Z,99.90
2022-09-02T06:36:43.686Z,99.90
2022-09-02T06:39:13.599Z,99.90
2022-09-02T06:41:43.069Z,99.90
2022-09-02T06:44:12.634Z,99.90
2022-09-02T06:46:47.721Z,99.90
2022-09-02T06:49:16.783Z,99.90
2022-09-02T06:51:46.321Z,99.90
2022-09-02T06:54:16.462Z,99.90
2022-09-02T06:56:49.209Z,99.90
2022-09-02T06:59:17.597Z,99.90
2022-09-02T07:01:47.972Z,99.90
2022-09-02T07:04:33.343Z,99.90
2022-09-02T07:07:01.100Z,99.90
2022-09-02T07:09:31.245Z,99.90
2022-09-02T07:12:04.281Z,99.60
2022-09-02T07:14:32.351Z,98.70
2022-09-02T07:17:01.468Z,98.50
2022-09-02T07:19:29.233Z,98.70
2022-09-02T07:21:56.971Z,98.20
2022-09-02T07:24:25.061Z,97.30
2022-09-02T07:26:55.370Z,96.80
2022-09-02T07:29:24.092Z,97.40
2022-09-02T07:31:52.164Z,96.60
2022-09-02T07:34:21.832Z,96.00
2022-09-02T07:36:49.711Z,95.80
2022-09-02T07:39:18.862Z,95.80
2022-09-02T07:41:49.065Z,95.50
2022-09-02T07:44:18.373Z,95.50
2022-09-02T07:46:46.909Z,95.80
2022-09-02T07:49:18.919Z,95.00
2022-09-02T07:51:51.997Z,94.70
2022-09-02T07:54:21.889Z,94.30
2022-09-02T07:56:50.114Z,93.60
2022-09-02T07:59:18.576Z,93.40
2022-09-02T08:01:48.224Z,93.30
2022-09-02T08:04:16.533Z,93.10
2022-09-02T08:06:44.374Z,92.70
2022-09-02T08:09:13.661Z,92.90
2022-09-02T08:11:44.308Z,93.00
2022-09-02T08:14:17.710Z,91.90
2022-09-02T08:16:46.430Z,91.90
2022-09-02T08:19:15.905Z,91.90
2022-09-02T08:21:43.743Z,91.40
2022-09-02T08:24:12.838Z,90.60
2022-09-02T08:26:40.606Z,90.60
2022-09-02T08:29:09.880Z,91.00
2022-09-02T08:31:38.633Z,90.30
2022-09-02T08:34:06.459Z,89.00
2022-09-02T08:36:34.283Z,89.20
2022-09-02T08:39:03.918Z,90.00
2022-09-02T08:41:40.459Z,89.00
2022-09-02T08:44:08.499Z,89.80
2022-09-02T08:46:36.695Z,86.40
2022-09-02T08:49:08.182Z,84.30
2022-09-02T08:51:39.049Z,83.20
2022-09-02T08:54:11.155Z,81.90
2022-09-02T08:56:42.091Z,82.10
2022-09-02T08:59:13.013Z,82.90
2022-09-02T09:01:47.765Z,82.20
2022-09-02T09:04:25.053Z,80.90
2022-09-02T09:07:10.652Z,80.90
2022-09-02T09:09:49.123Z,79.20
2022-09-02T09:12:30.617Z,79.00
2022-09-02T09:15:07.169Z,77.40
2022-09-02T09:17:44.121Z,76.80
2022-09-02T09:20:19.567Z,78.20
2022-09-02T09:22:49.604Z,75.60
2022-09-02T09:25:18.581Z,73.10
2022-09-02T09:27:47.685Z,73.10
2022-09-02T09:30:15.932Z,75.20
2022-09-02T09:32:47.471Z,72.80
2022-09-02T09:35:16.929Z,72.90
2022-09-02T09:37:47.913Z,70.90
2022-09-02T09:40:28.275Z,69.10
2022-09-02T09:45:34.671Z,68.80
2022-09-02T09:48:22.763Z,67.60
2022-09-02T09:51:13.397Z,63.80
2022-09-02T09:53:41.396Z,61.90
2022-09-02T09:56:24.964Z,63.60
2022-09-02T09:58:52.957Z,64.70
2022-09-02T10:01:23.433Z,65.10
2022-09-02T10:03:53.511Z,63.20
2022-09-02T10:06:26.001Z,62.80
2022-09-02T10:08:56.273Z,62.50
2022-09-02T10:11:26.647Z,63.20
2022-09-02T10:13:59.846Z,62.10
2022-09-02T10:16:47.313Z,62.50
2022-09-02T10:19:22.243Z,61.90
2022-09-02T10:22:10.819Z,61.80
2022-09-02T10:24:56.791Z,61.50
2022-09-02T10:27:37.707Z,60.10
2022-09-02T10:30:08.945Z,59.50
2022-09-02T10:33:01.682Z,58.90
2022-09-02T10:35:36.555Z,58.90
2022-09-02T10:38:13.985Z,58.60
2022-09-02T10:40:49.635Z,59.60
2022-09-02T10:43:29.447Z,59.60
2022-09-02T10:46:00.818Z,59.30
2022-09-02T10:48:49.948Z,59.60
2022-09-02T10:51:25.369Z,59.30
2022-09-02T10:54:09.597Z,59.80
2022-09-02T10:56:42.619Z,59.90
2022-09-02T10:59:15.504Z,58.80
2022-09-02T11:01:49.372Z,58.70
2022-09-02T11:04:25.316Z,57.60
2022-09-02T11:07:02.894Z,58.10
2022-09-02T11:09:37.916Z,58.50
2022-09-02T11:12:10.978Z,58.50
2022-09-02T11:14:45.979Z,58.00
2022-09-02T11:17:23.160Z,58.40
2022-09-02T11:19:56.523Z,57.60
2022-09-02T11:22:29.163Z,56.70
2022-09-02T11:25:04.254Z,58.30
2022-09-02T11:27:42.657Z,56.50
2022-09-02T11:30:16.142Z,56.20
2022-09-02T11:32:51.724Z,55.60
2022-09-02T11:35:27.761Z,56.20
2022-09-02T11:38:00.800Z,54.60
2022-09-02T11:40:36.005Z,55.20
2022-09-02T11:43:13.695Z,55.70
2022-09-02T11:46:03.855Z,53.80
2022-09-02T11:49:05.882Z,53.60
2022-09-02T11:52:01.876Z,53.40
2022-09-02T11:54:35.878Z,53.20
2022-09-02T11:57:07.543Z,53.00
2022-09-02T12:00:07.368Z,52.60
2022-09-02T12:02:43.221Z,53.00
2022-09-02T12:05:49.816Z,53.20
2022-09-02T12:09:00.028Z,52.50
2022-09-02T12:11:41.640Z,53.70
2022-09-02T12:14:13.624Z,53.40
2022-09-02T12:16:46.208Z,52.80
2022-09-02T12:19:29.244Z,52.20
2022-09-02T12:22:32.674Z,52.50
2022-09-02T12:25:03.379Z,52.20
2022-09-02T12:27:36.668Z,52.80
2022-09-02T12:30:09.238Z,53.00
2022-09-02T12:33:05.396Z,53.50
2022-09-02T12:35:57.645Z,54.20
2022-09-02T12:38:38.632Z,53.00
2022-09-02T12:41:18.419Z,52.20
2022-09-02T12:43:58.805Z,52.20
2022-09-02T12:46:44.786Z,52.80
2022-09-02T12:49:26.347Z,51.90
2022-09-02T12:51:57.141Z,51.30
2022-09-02T12:54:35.533Z,52.70
2022-09-02T12:57:04.016Z,53.00
2022-09-02T12:59:34.360Z,53.00
2022-09-02T13:02:30.576Z,52.60
2022-09-02T13:05:15.848Z,51.90
2022-09-02T13:08:08.706Z,51.90
2022-09-02T13:10:57.521Z,52.00
2022-09-02T13:13:54.641Z,52.60
2022-09-02T13:16:38.306Z,52.10
2022-09-02T13:19:21.707Z,52.60
2022-09-02T13:22:13.412Z,52.70
2022-09-02T13:25:08.514Z,53.00
2022-09-02T13:28:07.772Z,52.60
2022-09-02T13:30:58.703Z,52.50
2022-09-02T13:33:27.768Z,53.10
2022-09-02T13:35:59.377Z,53.30
2022-09-02T13:38:28.755Z,53.20
2022-09-02T13:40:56.802Z,53.30
2022-09-02T13:43:26.996Z,53.60
2022-09-02T13:45:59.887Z,53.60
2022-09-02T13:48:29.825Z,52.00
2022-09-02T13:51:03.494Z,50.50
2022-09-02T13:54:18.288Z,50.20
2022-09-02T13:56:27.303Z,50.20
2022-09-02T13:58:57.009Z,49.60
2022-09-02T14:01:29.789Z,50.00
2022-09-02T14:03:59.878Z,50.00
2022-09-02T14:06:33.164Z,49.20
2022-09-02T14:09:03.640Z,48.60
2022-09-02T14:11:41.535Z,49.20
2022-09-02T14:14:10.366Z,49.10
2022-09-02T14:16:38.381Z,49.10
2022-09-02T14:19:14.399Z,49.30
2022-09-02T14:21:50.731Z,49.50
2022-09-02T14:24:23.124Z,49.90
2022-09-02T14:26:53.895Z,49.80
2022-09-02T14:29:22.901Z,50.30
2022-09-02T14:32:09.702Z,49.60
2022-09-02T14:34:39.603Z,49.60
2022-09-02T14:37:26.910Z,49.70
2022-09-02T14:40:09.778Z,49.70
2022-09-02T14:42:48.740Z,48.30
2022-09-02T14:45:26.428Z,48.20
2022-09-02T14:47:54.700Z,48.40
2022-09-02T14:50:28.339Z,48.20
2022-09-02T14:53:03.659Z,48.70
2022-09-02T14:55:48.342Z,48.10
2022-09-02T14:58:17.302Z,48.70
2022-09-02T15:00:47.318Z,48.80
2022-09-02T15:03:17.104Z,49.20
2022-09-02T15:05:45.354Z,49.30
2022-09-02T15:08:15.490Z,49.30
2022-09-02T15:10:44.896Z,49.40
2022-09-02T15:13:14.792Z,49.60
2022-09-02T15:15:42.901Z,50.00
2022-09-02T15:18:11.509Z,49.90
2022-09-02T15:20:39.274Z,49.80
2022-09-02T15:23:07.312Z,49.90
2022-09-02T15:25:36.494Z,49.40
2022-09-02T15:28:04.537Z,49.20
2022-09-02T15:30:34.693Z,49.40
2022-09-02T15:33:04.347Z,49.60
2022-09-02T15:35:33.336Z,49.60
2022-09-02T15:38:02.888Z,49.30
2022-09-02T15:40:32.215Z,49.40
2022-09-02T15:43:01.492Z,49.10
2022-09-02T15:45:29.249Z,48.60
2022-09-02T15:47:59.324Z,48.90
2022-09-02T15:50:28.341Z,49.40
2022-09-02T15:52:56.611Z,49.00
2022-09-02T15:55:29.553Z,49.40
2022-09-02T15:57:58.325Z,48.30
2022-09-02T16:00:32.160Z,48.70
2022-09-02T16:03:02.517Z,48.50
2022-09-02T16:05:32.354Z,48.80
2022-09-02T16:08:00.292Z,48.90
2022-09-02T16:10:29.963Z,48.00
2022-09-02T16:13:00.577Z,48.20
2022-09-02T16:15:29.953Z,48.70
2022-09-02T16:18:02.066Z,49.10
2022-09-02T16:20:29.802Z,49.10
2022-09-02T16:22:57.549Z,49.60
2022-09-02T16:25:26.192Z,49.40
2022-09-02T16:27:54.925Z,49.40
2022-09-02T16:30:23.565Z,49.90
2022-09-02T16:32:52.757Z,50.10
2022-09-02T16:35:20.574Z,49.30
2022-09-02T16:37:48.537Z,49.60
2022-09-02T16:40:21.287Z,49.30
2022-09-02T16:42:49.378Z,50.20
2022-09-02T16:45:17.376Z,50.60
2022-09-02T16:47:45.193Z,50.70
2022-09-02T16:50:14.364Z,50.50
2022-09-02T16:52:42.115Z,50.60
2022-09-02T16:55:10.578Z,50.90
2022-09-02T16:57:38.323Z,50.90
2022-09-02T17:00:07.459Z,52.00
2022-09-02T17:02:35.569Z,51.20
2022-09-02T17:05:03.337Z,51.30
2022-09-02T17:07:32.455Z,51.50
2022-09-02T17:10:00.186Z,51.50
2022-09-02T17:12:27.938Z,52.00
2022-09-02T17:14:55.658Z,52.20
2022-09-02T17:17:23.391Z,52.30
2022-09-02T17:19:51.173Z,52.70
2022-09-02T17:22:18.977Z,52.70
2022-09-02T17:24:53.080Z,52.50
2022-09-02T17:27:21.622Z,52.20
2022-09-02T17:29:50.355Z,52.80
2022-09-02T17:32:18.601Z,53.40
2022-09-02T17:34:46.677Z,53.20
2022-09-02T17:37:14.451Z,53.20
2022-09-02T17:39:42.268Z,53.10
2022-09-02T17:42:10.470Z,54.00
2022-09-02T17:44:40.128Z,53.70
2022-09-02T17:47:10.388Z,53.90
2022-09-02T17:49:41.940Z,54.50
2022-09-02T17:52:10.238Z,55.20
2022-09-02T17:54:40.137Z,55.20
2022-09-02T17:57:23.651Z,55.00
2022-09-02T18:00:07.754Z,55.10
2022-09-02T18:02:56.802Z,56.10
2022-09-02T18:05:32.485Z,56.00
2022-09-02T18:08:08.597Z,56.20
2022-09-02T18:10:39.590Z,56.80
2022-09-02T18:13:13.586Z,56.70
2022-09-02T18:15:51.997Z,57.00
2022-09-02T18:18:21.720Z,57.40
2022-09-02T18:20:56.696Z,57.50
2022-09-02T18:23:37.100Z,57.90
2022-09-02T18:26:13.961Z,57.50
2022-09-02T18:28:52.163Z,57.60
2022-09-02T18:31:34.411Z,57.50
2022-09-02T18:34:38.655Z,57.70
2022-09-02T18:37:13.532Z,58.20
2022-09-02T18:39:54.738Z,58.20
2022-09-02T18:42:37.222Z,58.20
2022-09-02T18:45:17.261Z,58.00
2022-09-02T18:47:53.860Z,58.10
2022-09-02T18:50:47.208Z,58.40
2022-09-02T18:53:16.641Z,58.30
2022-09-02T18:55:45.468Z,58.10
2022-09-02T18:58:30.740Z,58.20
2022-09-02T19:01:06.037Z,58.40
2022-09-02T19:03:35.812Z,58.60
2022-09-02T19:06:07.400Z,58.40
2022-09-02T19:08:37.985Z,58.60
2022-09-02T19:11:09.007Z,58.50
2022-09-02T19:13:45.991Z,58.60
2022-09-02T19:16:17.275Z,59.00
2022-09-02T19:18:45.304Z,59.60
2022-09-02T19:21:18.773Z,59.30
2022-09-02T19:23:47.772Z,59.30
2022-09-02T19:26:15.679Z,59.60
2022-09-02T19:28:45.363Z,59.70
2022-09-02T19:31:20.613Z,59.80
2022-09-02T19:33:54.174Z,59.80
2022-09-02T19:36:23.597Z,60.10
2022-09-02T19:38:54.139Z,61.00
2022-09-02T19:41:23.937Z,61.70
2022-09-02T19:43:51.730Z,61.70
2022-09-02T19:46:55.765Z,62.40
2022-09-02T19:49:08.736Z,62.60
2022-09-02T19:51:36.545Z,63.40
2022-09-02T19:54:04.565Z,63.60
2022-09-02T19:56:32.439Z,63.80
2022-09-02T19:59:00.834Z,64.30
2022-09-02T20:01:30.621Z,65.00
2022-09-02T20:03:58.392Z,65.90
2022-09-02T20:06:26.214Z,66.30
2022-09-02T20:08:53.969Z,66.30
2022-09-02T20:11:21.724Z,66.30
2022-09-02T20:13:50.312Z,66.70
2022-09-02T20:16:21.721Z,66.90
2022-09-02T20:18:51.837Z,66.90
2022-09-02T20:21:22.204Z,67.40
2022-09-02T20:23:50.037Z,68.10
2022-09-02T20:26:34.209Z,68.60
2022-09-02T20:29:16.464Z,68.60
2022-09-02T20:31:57.856Z,69.10
2022-09-02T20:34:43.086Z,68.90
2022-09-02T20:37:26.400Z,69.10
2022-09-02T20:40:12.403Z,70.00
2022-09-02T20:42:54.846Z,70.40
2022-09-02T20:45:27.452Z,69.90
2022-09-02T20:48:06.003Z,68.90
2022-09-02T20:50:46.368Z,69.10
2022-09-02T20:53:36.646Z,69.20
2022-09-02T20:56:12.794Z,69.20
2022-09-02T20:58:45.363Z,69.30
2022-09-02T21:01:18.988Z,70.30
2022-09-02T21:03:51.872Z,70.60
2022-09-02T21:06:25.055Z,70.70
2022-09-02T21:09:01.573Z,70.70
2022-09-02T21:11:38.740Z,71.00
2022-09-02T21:14:12.046Z,71.40
2022-09-02T21:16:43.906Z,71.70
2022-09-02T21:19:18.343Z,72.20
2022-09-02T21:21:53.746Z,72.50
2022-09-02T21:24:25.616Z,73.20
2022-09-02T21:26:59.763Z,73.10
2022-09-02T21:29:31.270Z,73.00
2022-09-02T21:32:05.621Z,73.20
2022-09-02T21:34:37.189Z,74.30
2022-09-02T21:37:09.442Z,75.30
2022-09-02T21:39:43.243Z,74.80
2022-09-02T21:42:23.395Z,75.10
2022-09-02T21:45:06.272Z,75.60
2022-09-02T21:47:39.516Z,75.60
2022-09-02T21:50:11.785Z,76.10
2022-09-02T21:52:56.914Z,76.90
2022-09-02T21:55:40.095Z,77.30
2022-09-02T21:58:21.079Z,77.00
2022-09-02T22:00:54.090Z,76.40
2022-09-02T22:03:37.042Z,76.40
2022-09-02T22:06:10.197Z,76.40
2022-09-02T22:08:47.035Z,75.80
2022-09-02T22:11:22.200Z,75.90
2022-09-02T22:13:50.371Z,76.40
2022-09-02T22:16:27.144Z,76.20
2022-09-02T22:19:02.344Z,76.40
2022-09-02T22:21:35.646Z,76.10
2022-09-02T22:24:06.146Z,76.20
2022-09-02T22:26:41.802Z,76.10
2022-09-02T22:29:18.020Z,77.00
2022-09-02T22:31:50.314Z,77.50
2022-09-02T22:34:20.236Z,77.10
2022-09-02T22:36:57.493Z,77.60
2022-09-02T22:39:33.922Z,77.10
2022-09-02T22:42:09.285Z,77.60
2022-09-02T22:45:05.533Z,77.10
2022-09-02T22:47:53.454Z,77.20
2022-09-02T22:50:44.240Z,76.80
2022-09-02T22:53:12.925Z,76.80
2022-09-02T22:55:51.730Z,77.40
2022-09-02T22:58:30.806Z,78.10
2022-09-02T23:01:07.631Z,78.20
2022-09-02T23:03:42.906Z,79.00
2022-09-02T23:06:19.846Z,79.40
2022-09-02T23:08:48.853Z,79.80
2022-09-02T23:11:28.407Z,79.80
2022-09-02T23:14:09.988Z,79.70
2022-09-02T23:17:23.341Z,79.70
2022-09-02T23:20:08.028Z,79.50
2022-09-02T23:22:59.222Z,79.00
2022-09-02T23:25:47.556Z,80.20
2022-09-02T23:28:19.376Z,80.00
2022-09-02T23:31:00.987Z,80.20
2022-09-02T23:33:39.590Z,80.40
2022-09-02T23:36:15.817Z,80.80
2022-09-02T23:39:11.491Z,80.60
2022-09-02T23:41:40.556Z,81.30
2022-09-02T23:44:12.341Z,81.40
2022-09-02T23:46:49.719Z,82.20
2022-09-02T23:49:27.463Z,82.10
2022-09-02T23:52:02.443Z,82.50
2022-09-02T23:54:50.966Z,83.50
2022-09-02T23:57:38.710Z,83.90
